VEAT/IXA METAR and TAF weather

Enter ICAO airport designator
Station Type Date Time Source
VEAT METAR 2020/09/25 07:30 UTC NOAA

VEAT 250730Z 22003KT 2500 -TSRA SCT010 SCT018 FEW030CB OVC090 28/27 Q1004 BECMG 3000 -RA


Station Type Date Time Source
VEAT Decoded METAR 2020/09/25 07:30 UTC NOAA

Agartala, India (VEAT) 23-53N 091-15E 16M
Sep 25, 2020 - 03:30 AM EDT / 2020.09.25 0730 UTC
Wind: from the SW (220 degrees) at 3 MPH (3 KT):0
Visibility: 1 mile(s):0
Sky conditions: overcast
Weather: light rain with thunder; Cumulonimbus clouds observed
Temperature: 82 F (28 C)
Dew Point: 80 F (27 C)
Relative Humidity: 94%
Pressure (altimeter): 29.65 in. Hg (1004 hPa)
ob: VEAT 250730Z 22003KT 2500 -TSRA SCT010 SCT018 FEW030CB OVC090 28/27 Q1004 BECMG 3000 -RA
cycle: 7

Station Type Date Time Source
VEAT TAF 2013/07/19 12:00 UTC NOAA

TAF VEAT 190900Z 1912/1921 16008KT 5000 HZ SCT018 FEW030CB BKN100
TEMPO 1912/1921 3000 -TSRA SCT015 FEW025CB OVC090

Example: see airport list